XLR444 YSSY-YBBN
Flight info
| Callsign | XLR444 |
|---|---|
| Flight time | 1h 13m |
| Altitude | 37000 |
| Route | OLSEM Y193 BANDA H252 BN |
| Aircraft | B738/M-SDE2E3FGHIRWXY/LB1 |
Departure
| Time | 2026-04-30 12:49 |
|---|---|
| Airport | Sydney Kingsford Smith International Airport (YSSY) |
Arrival
| Time | 2026-04-30 14:02 |
|---|---|
| Airport | Brisbane International Airport (YBBN) |
| Time | Latitude | Longitude | Altitude | Speed | Heading |
|---|---|---|---|---|---|
| 2026-04-30 12:09 | -33.93111 | 151.16777 | 29 ft | 0 kts | 257° |
| 2026-04-30 12:25 | -33.93108 | 151.16794 | 29 ft | 4 kts | 261° |
| 2026-04-30 12:25 | -33.93105 | 151.16826 | 29 ft | 4 kts | 268° |
| 2026-04-30 12:25 | -33.93104 | 151.16859 | 29 ft | 4 kts | 268° |
| 2026-04-30 12:25 | -33.93101 | 151.16888 | 29 ft | 2 kts | 244° |
| 2026-04-30 12:26 | -33.93088 | 151.16912 | 29 ft | 4 kts | 211° |
| 2026-04-30 12:26 | -33.93065 | 151.16916 | 29 ft | 4 kts | 163° |
| 2026-04-30 12:26 | -33.93046 | 151.16909 | 29 ft | 0 kts | 167° |
| 2026-04-30 12:30 | -33.93047 | 151.16909 | 29 ft | 0 kts | 167° |
| 2026-04-30 12:31 | -33.93063 | 151.16914 | 29 ft | 5 kts | 167° |
| 2026-04-30 12:31 | -33.93105 | 151.16925 | 29 ft | 7 kts | 167° |
| 2026-04-30 12:31 | -33.93171 | 151.16943 | 29 ft | 12 kts | 167° |
| 2026-04-30 12:31 | -33.93255 | 151.16970 | 29 ft | 12 kts | 154° |
| 2026-04-30 12:32 | -33.93316 | 151.17037 | 29 ft | 12 kts | 143° |
| 2026-04-30 12:32 | -33.93390 | 151.17074 | 29 ft | 11 kts | 167° |
| 2026-04-30 12:32 | -33.93443 | 151.17133 | 28 ft | 11 kts | 94° |
| 2026-04-30 12:32 | -33.93428 | 151.17226 | 26 ft | 12 kts | 76° |
| 2026-04-30 12:33 | -33.93411 | 151.17320 | 27 ft | 11 kts | 77° |
| 2026-04-30 12:33 | -33.93394 | 151.17411 | 28 ft | 11 kts | 78° |
| 2026-04-30 12:33 | -33.93408 | 151.17492 | 29 ft | 11 kts | 153° |
| 2026-04-30 12:33 | -33.93481 | 151.17502 | 29 ft | 10 kts | 169° |
| 2026-04-30 12:34 | -33.93550 | 151.17521 | 28 ft | 10 kts | 167° |
| 2026-04-30 12:34 | -33.93617 | 151.17539 | 28 ft | 10 kts | 167° |
| 2026-04-30 12:34 | -33.93685 | 151.17555 | 28 ft | 10 kts | 167° |
| 2026-04-30 12:34 | -33.93760 | 151.17575 | 28 ft | 11 kts | 168° |
| 2026-04-30 12:35 | -33.93835 | 151.17594 | 28 ft | 11 kts | 168° |
| 2026-04-30 12:35 | -33.93908 | 151.17613 | 28 ft | 11 kts | 168° |
| 2026-04-30 12:35 | -33.93979 | 151.17631 | 28 ft | 10 kts | 167° |
| 2026-04-30 12:35 | -33.94047 | 151.17650 | 27 ft | 10 kts | 167° |
| 2026-04-30 12:36 | -33.94114 | 151.17668 | 28 ft | 10 kts | 167° |
| 2026-04-30 12:36 | -33.94179 | 151.17685 | 28 ft | 9 kts | 167° |
| 2026-04-30 12:36 | -33.94242 | 151.17707 | 28 ft | 10 kts | 165° |
| 2026-04-30 12:36 | -33.94324 | 151.17733 | 29 ft | 14 kts | 165° |
| 2026-04-30 12:37 | -33.94432 | 151.17767 | 29 ft | 17 kts | 166° |
| 2026-04-30 12:37 | -33.94543 | 151.17799 | 29 ft | 16 kts | 167° |
| 2026-04-30 12:37 | -33.94650 | 151.17829 | 29 ft | 15 kts | 167° |
| 2026-04-30 12:37 | -33.94753 | 151.17856 | 29 ft | 15 kts | 168° |
| 2026-04-30 12:38 | -33.94853 | 151.17879 | 29 ft | 14 kts | 169° |
| 2026-04-30 12:38 | -33.94948 | 151.17903 | 29 ft | 14 kts | 167° |
| 2026-04-30 12:38 | -33.95038 | 151.17927 | 29 ft | 13 kts | 167° |
| 2026-04-30 12:38 | -33.95125 | 151.17950 | 29 ft | 13 kts | 168° |
| 2026-04-30 12:39 | -33.95182 | 151.18018 | 29 ft | 12 kts | 100° |
| 2026-04-30 12:39 | -33.95171 | 151.18120 | 29 ft | 12 kts | 78° |
| 2026-04-30 12:39 | -33.95153 | 151.18217 | 29 ft | 12 kts | 77° |
| 2026-04-30 12:39 | -33.95136 | 151.18312 | 29 ft | 11 kts | 78° |
| 2026-04-30 12:40 | -33.95120 | 151.18405 | 29 ft | 11 kts | 77° |
| 2026-04-30 12:40 | -33.95114 | 151.18496 | 29 ft | 11 kts | 99° |
| 2026-04-30 12:40 | -33.95148 | 151.18576 | 29 ft | 11 kts | 132° |
| 2026-04-30 12:40 | -33.95211 | 151.18648 | 29 ft | 14 kts | 137° |
| 2026-04-30 12:41 | -33.95291 | 151.18706 | 29 ft | 13 kts | 158° |
| 2026-04-30 12:41 | -33.95378 | 151.18735 | 29 ft | 13 kts | 167° |
| 2026-04-30 12:41 | -33.95468 | 151.18758 | 29 ft | 14 kts | 168° |
| 2026-04-30 12:41 | -33.95568 | 151.18784 | 29 ft | 15 kts | 168° |
| 2026-04-30 12:42 | -33.95674 | 151.18812 | 29 ft | 15 kts | 169° |
| 2026-04-30 12:42 | -33.95778 | 151.18836 | 29 ft | 15 kts | 169° |
| 2026-04-30 12:42 | -33.95875 | 151.18864 | 29 ft | 14 kts | 165° |
| 2026-04-30 12:42 | -33.95970 | 151.18889 | 29 ft | 14 kts | 168° |
| 2026-04-30 12:43 | -33.96060 | 151.18912 | 29 ft | 13 kts | 168° |
| 2026-04-30 12:43 | -33.96147 | 151.18934 | 29 ft | 13 kts | 168° |
| 2026-04-30 12:43 | -33.96231 | 151.18957 | 29 ft | 12 kts | 167° |
| 2026-04-30 12:43 | -33.96313 | 151.18980 | 29 ft | 12 kts | 167° |
| 2026-04-30 12:44 | -33.96395 | 151.18999 | 29 ft | 12 kts | 169° |
| 2026-04-30 12:44 | -33.96473 | 151.19018 | 29 ft | 11 kts | 169° |
| 2026-04-30 12:44 | -33.96549 | 151.19038 | 29 ft | 11 kts | 167° |
| 2026-04-30 12:44 | -33.96623 | 151.19057 | 29 ft | 11 kts | 168° |
| 2026-04-30 12:45 | -33.96698 | 151.19074 | 29 ft | 11 kts | 176° |
| 2026-04-30 12:45 | -33.96776 | 151.19063 | 29 ft | 11 kts | 188° |
| 2026-04-30 12:45 | -33.96854 | 151.19075 | 29 ft | 12 kts | 167° |
| 2026-04-30 12:45 | -33.96934 | 151.19096 | 29 ft | 12 kts | 167° |
| 2026-04-30 12:46 | -33.97011 | 151.19117 | 29 ft | 11 kts | 167° |
| 2026-04-30 12:46 | -33.97061 | 151.19155 | 29 ft | 7 kts | 107° |
| 2026-04-30 12:46 | -33.97054 | 151.19215 | 28 ft | 8 kts | 79° |
| 2026-04-30 12:46 | -33.97039 | 151.19300 | 28 ft | 13 kts | 77° |
| 2026-04-30 12:47 | -33.96984 | 151.19352 | 26 ft | 10 kts | 352° |
| 2026-04-30 12:47 | -33.96957 | 151.19345 | 25 ft | 4 kts | 347° |
| 2026-04-30 12:47 | -33.96930 | 151.19338 | 24 ft | 0 kts | 347° |
| 2026-04-30 12:48 | -33.96876 | 151.19324 | 25 ft | 33 kts | 348° |
| 2026-04-30 12:48 | -33.96393 | 151.19197 | 29 ft | 107 kts | 347° |
| 2026-04-30 12:48 | -33.95456 | 151.18955 | 48 ft | 163 kts | 348° |
| 2026-04-30 12:49 | -33.94331 | 151.18762 | 777 ft | 160 kts | 355° |
| 2026-04-30 12:49 | -33.93228 | 151.18934 | 1514 ft | 162 kts | 24° |
| 2026-04-30 12:49 | -33.92266 | 151.19696 | 2093 ft | 176 kts | 40° |
| 2026-04-30 12:49 | -33.91620 | 151.20334 | 2384 ft | 191 kts | 38° |
| 2026-04-30 12:50 | -33.90138 | 151.21626 | 2940 ft | 207 kts | 36° |
| 2026-04-30 12:50 | -33.88904 | 151.22686 | 3191 ft | 226 kts | 36° |
| 2026-04-30 12:50 | -33.88024 | 151.23443 | 3435 ft | 237 kts | 36° |
| 2026-04-30 12:50 | -33.86169 | 151.25045 | 3993 ft | 255 kts | 36° |
| 2026-04-30 12:51 | -33.84718 | 151.26305 | 4786 ft | 258 kts | 39° |
| 2026-04-30 12:51 | -33.83872 | 151.27347 | 5378 ft | 258 kts | 56° |
| 2026-04-30 12:51 | -33.83081 | 151.29277 | 6217 ft | 260 kts | 70° |
| 2026-04-30 12:51 | -33.82498 | 151.31359 | 6991 ft | 265 kts | 72° |
| 2026-04-30 12:52 | -33.81938 | 151.33486 | 7728 ft | 269 kts | 72° |
| 2026-04-30 12:52 | -33.81365 | 151.35651 | 8472 ft | 273 kts | 69° |
| 2026-04-30 12:52 | -33.80394 | 151.37623 | 9222 ft | 277 kts | 51° |
| 2026-04-30 12:52 | -33.79169 | 151.39425 | 9996 ft | 280 kts | 50° |
| 2026-04-30 12:53 | -33.77896 | 151.41267 | 10432 ft | 297 kts | 50° |
| 2026-04-30 12:53 | -33.76523 | 151.43259 | 10602 ft | 321 kts | 50° |
| 2026-04-30 12:53 | -33.75091 | 151.45349 | 10971 ft | 334 kts | 50° |
| 2026-04-30 12:53 | -33.73583 | 151.47561 | 11590 ft | 340 kts | 50° |
| 2026-04-30 12:54 | -33.72103 | 151.49739 | 12280 ft | 343 kts | 50° |
| 2026-04-30 12:54 | -33.70590 | 151.51969 | 12951 ft | 347 kts | 50° |
| 2026-04-30 12:54 | -33.69032 | 151.54266 | 13632 ft | 352 kts | 50° |
| 2026-04-30 12:54 | -33.67495 | 151.56529 | 14291 ft | 357 kts | 50° |
| 2026-04-30 12:55 | -33.65917 | 151.58853 | 14934 ft | 361 kts | 50° |
| 2026-04-30 12:55 | -33.64199 | 151.61058 | 15601 ft | 364 kts | 38° |
| 2026-04-30 12:55 | -33.62114 | 151.62799 | 16297 ft | 366 kts | 32° |
| 2026-04-30 12:55 | -33.59953 | 151.64443 | 16970 ft | 370 kts | 32° |
| 2026-04-30 12:56 | -33.57764 | 151.66106 | 17612 ft | 375 kts | 32° |
| 2026-04-30 12:56 | -33.55560 | 151.67813 | 18256 ft | 379 kts | 33° |
| 2026-04-30 12:56 | -33.53343 | 151.69557 | 18860 ft | 384 kts | 33° |
| 2026-04-30 12:56 | -33.51105 | 151.71317 | 19423 ft | 387 kts | 32° |
| 2026-04-30 12:57 | -33.48706 | 151.72813 | 19997 ft | 391 kts | 22° |
| 2026-04-30 12:57 | -33.46103 | 151.73797 | 20562 ft | 394 kts | 15° |
| 2026-04-30 12:57 | -33.43423 | 151.74593 | 21094 ft | 399 kts | 14° |
| 2026-04-30 12:57 | -33.40720 | 151.75399 | 21607 ft | 403 kts | 15° |
| 2026-04-30 12:58 | -33.37989 | 151.76244 | 22134 ft | 407 kts | 15° |
| 2026-04-30 12:58 | -33.35246 | 151.77115 | 22649 ft | 410 kts | 16° |
| 2026-04-30 12:58 | -33.32471 | 151.78009 | 23156 ft | 414 kts | 16° |
| 2026-04-30 12:58 | -33.29685 | 151.78912 | 23652 ft | 418 kts | 16° |
| 2026-04-30 12:59 | -33.26858 | 151.79830 | 24108 ft | 422 kts | 16° |
| 2026-04-30 12:59 | -33.24009 | 151.80753 | 24514 ft | 425 kts | 16° |
| 2026-04-30 12:59 | -33.21149 | 151.81678 | 24950 ft | 428 kts | 16° |
| 2026-04-30 12:59 | -33.18268 | 151.82608 | 25386 ft | 430 kts | 16° |
| 2026-04-30 13:00 | -33.15370 | 151.83542 | 25805 ft | 433 kts | 16° |
| 2026-04-30 13:00 | -33.12453 | 151.84481 | 26212 ft | 435 kts | 16° |
| 2026-04-30 13:00 | -33.09524 | 151.85423 | 26606 ft | 438 kts | 16° |
| 2026-04-30 13:00 | -33.06570 | 151.86372 | 27007 ft | 441 kts | 16° |
| 2026-04-30 13:01 | -33.03600 | 151.87326 | 27389 ft | 443 kts | 16° |
| 2026-04-30 13:01 | -33.00614 | 151.88284 | 27784 ft | 445 kts | 16° |
| 2026-04-30 13:01 | -32.97614 | 151.89246 | 28149 ft | 448 kts | 16° |
| 2026-04-30 13:01 | -32.94595 | 151.90213 | 28503 ft | 451 kts | 16° |
| 2026-04-30 13:02 | -32.91557 | 151.91186 | 28854 ft | 453 kts | 16° |
| 2026-04-30 13:02 | -32.88502 | 151.92163 | 29204 ft | 456 kts | 16° |
| 2026-04-30 13:02 | -32.85427 | 151.93147 | 29541 ft | 458 kts | 16° |
| 2026-04-30 13:02 | -32.82342 | 151.94132 | 29870 ft | 461 kts | 16° |
| 2026-04-30 13:03 | -32.79240 | 151.95123 | 30199 ft | 463 kts | 16° |
| 2026-04-30 13:03 | -32.76116 | 151.96119 | 30516 ft | 465 kts | 16° |
| 2026-04-30 13:03 | -32.72985 | 151.97117 | 30774 ft | 468 kts | 16° |
| 2026-04-30 13:03 | -32.69830 | 151.98123 | 31017 ft | 470 kts | 16° |
| 2026-04-30 13:04 | -32.66708 | 151.99116 | 31261 ft | 472 kts | 16° |
| 2026-04-30 13:04 | -32.63490 | 152.00140 | 31577 ft | 472 kts | 16° |
| 2026-04-30 13:04 | -32.60363 | 152.01134 | 31953 ft | 471 kts | 15° |
| 2026-04-30 13:04 | -32.57200 | 152.02138 | 32303 ft | 470 kts | 15° |
| 2026-04-30 13:05 | -32.54039 | 152.03141 | 32597 ft | 471 kts | 15° |
| 2026-04-30 13:05 | -32.50868 | 152.04147 | 32888 ft | 472 kts | 15° |
| 2026-04-30 13:05 | -32.47702 | 152.05150 | 33218 ft | 471 kts | 15° |
| 2026-04-30 13:06 | -32.41374 | 152.07154 | 33900 ft | 470 kts | 15° |
| 2026-04-30 13:06 | -32.38208 | 152.08155 | 34200 ft | 471 kts | 14° |
| 2026-04-30 13:06 | -32.35046 | 152.09155 | 34481 ft | 471 kts | 14° |
| 2026-04-30 13:06 | -32.31880 | 152.10155 | 34742 ft | 471 kts | 14° |
| 2026-04-30 13:07 | -32.28717 | 152.11153 | 35033 ft | 470 kts | 14° |
| 2026-04-30 13:07 | -32.25567 | 152.12146 | 35327 ft | 468 kts | 14° |
| 2026-04-30 13:07 | -32.22418 | 152.13139 | 35574 ft | 468 kts | 14° |
| 2026-04-30 13:07 | -32.19267 | 152.14131 | 35812 ft | 468 kts | 14° |
| 2026-04-30 13:08 | -32.16118 | 152.15122 | 36069 ft | 468 kts | 13° |
| 2026-04-30 13:08 | -32.12978 | 152.16109 | 36336 ft | 467 kts | 13° |
| 2026-04-30 13:08 | -32.09840 | 152.17095 | 36600 ft | 466 kts | 13° |
| 2026-04-30 13:08 | -32.06708 | 152.18079 | 36854 ft | 466 kts | 13° |
| 2026-04-30 13:09 | -32.03575 | 152.19062 | 37096 ft | 465 kts | 13° |
| 2026-04-30 13:09 | -32.00452 | 152.20041 | 37332 ft | 465 kts | 13° |
| 2026-04-30 13:09 | -31.97318 | 152.21023 | 37419 ft | 467 kts | 13° |
| 2026-04-30 13:10 | -31.91036 | 152.22989 | 37420 ft | 466 kts | 13° |
| 2026-04-30 13:10 | -31.84785 | 152.24944 | 37431 ft | 463 kts | 13° |
| 2026-04-30 13:11 | -31.78613 | 152.26871 | 37424 ft | 460 kts | 12° |
| 2026-04-30 13:11 | -31.72430 | 152.28798 | 37431 ft | 459 kts | 12° |
| 2026-04-30 13:12 | -31.66263 | 152.30717 | 37434 ft | 459 kts | 12° |
| 2026-04-30 13:12 | -31.60084 | 152.32637 | 37432 ft | 460 kts | 12° |
| 2026-04-30 13:13 | -31.50777 | 152.35525 | 37426 ft | 463 kts | 12° |
| 2026-04-30 13:14 | -31.41419 | 152.38423 | 37433 ft | 465 kts | 12° |
| 2026-04-30 13:14 | -31.32005 | 152.41332 | 37428 ft | 467 kts | 12° |
| 2026-04-30 13:15 | -31.22564 | 152.44244 | 37424 ft | 468 kts | 12° |
| 2026-04-30 13:16 | -31.16257 | 152.46186 | 37419 ft | 468 kts | 12° |
| 2026-04-30 13:16 | -31.09968 | 152.48120 | 37424 ft | 468 kts | 12° |
| 2026-04-30 13:17 | -31.00535 | 152.51016 | 37419 ft | 467 kts | 12° |
| 2026-04-30 13:18 | -30.91163 | 152.53887 | 37419 ft | 465 kts | 12° |
| 2026-04-30 13:18 | -30.81785 | 152.56754 | 37419 ft | 464 kts | 12° |
| 2026-04-30 13:19 | -30.75562 | 152.58789 | 37414 ft | 464 kts | 14° |
| 2026-04-30 13:19 | -30.69407 | 152.61074 | 37419 ft | 464 kts | 15° |
| 2026-04-30 13:20 | -30.63258 | 152.63367 | 37420 ft | 464 kts | 15° |
| 2026-04-30 13:20 | -30.57104 | 152.65620 | 37414 ft | 464 kts | 14° |
| 2026-04-30 13:21 | -30.50942 | 152.67853 | 37423 ft | 464 kts | 14° |
| 2026-04-30 13:22 | -30.41692 | 152.71195 | 37416 ft | 464 kts | 14° |
| 2026-04-30 13:22 | -30.32435 | 152.74535 | 37414 ft | 464 kts | 14° |
| 2026-04-30 13:23 | -30.23173 | 152.77872 | 37410 ft | 465 kts | 14° |
| 2026-04-30 13:24 | -30.10849 | 152.82302 | 37406 ft | 466 kts | 14° |
| 2026-04-30 13:25 | -29.98477 | 152.86738 | 37398 ft | 465 kts | 14° |
| 2026-04-30 13:26 | -29.83017 | 152.92246 | 37387 ft | 465 kts | 14° |
| 2026-04-30 13:28 | -29.67588 | 152.97705 | 37381 ft | 463 kts | 14° |
| 2026-04-30 13:28 | -29.58346 | 153.00970 | 37376 ft | 463 kts | 14° |
| 2026-04-30 13:29 | -29.46084 | 153.05291 | 37373 ft | 462 kts | 14° |
| 2026-04-30 13:31 | -29.30708 | 153.10694 | 36994 ft | 468 kts | 14° |
| 2026-04-30 13:31 | -29.21396 | 153.13968 | 35272 ft | 466 kts | 14° |
| 2026-04-30 13:32 | -29.15233 | 153.16140 | 34324 ft | 461 kts | 14° |
| 2026-04-30 13:32 | -29.09149 | 153.18281 | 33314 ft | 454 kts | 14° |
| 2026-04-30 13:33 | -29.03167 | 153.20383 | 32389 ft | 446 kts | 14° |
| 2026-04-30 13:33 | -28.97276 | 153.22449 | 31507 ft | 439 kts | 15° |
| 2026-04-30 13:34 | -28.94374 | 153.23466 | 31071 ft | 436 kts | 15° |
| 2026-04-30 13:34 | -28.85767 | 153.26477 | 29668 ft | 426 kts | 15° |
| 2026-04-30 13:35 | -28.82946 | 153.27464 | 29194 ft | 422 kts | 15° |
| 2026-04-30 13:35 | -28.77377 | 153.29409 | 28298 ft | 415 kts | 15° |
| 2026-04-30 13:36 | -28.71910 | 153.31317 | 27428 ft | 408 kts | 16° |
| 2026-04-30 13:36 | -28.69241 | 153.32247 | 27008 ft | 405 kts | 16° |
| 2026-04-30 13:36 | -28.63893 | 153.34110 | 26156 ft | 399 kts | 16° |
| 2026-04-30 13:37 | -28.61249 | 153.35030 | 25739 ft | 397 kts | 16° |
| 2026-04-30 13:37 | -28.55996 | 153.36857 | 24907 ft | 393 kts | 16° |
| 2026-04-30 13:38 | -28.50788 | 153.38667 | 24050 ft | 390 kts | 17° |
| 2026-04-30 13:38 | -28.48196 | 153.39566 | 23582 ft | 389 kts | 17° |
| 2026-04-30 13:38 | -28.43055 | 153.41350 | 22707 ft | 383 kts | 17° |
| 2026-04-30 13:39 | -28.37993 | 153.43105 | 21877 ft | 377 kts | 17° |
| 2026-04-30 13:39 | -28.33007 | 153.44831 | 21076 ft | 372 kts | 17° |
| 2026-04-30 13:40 | -28.30544 | 153.45684 | 20680 ft | 369 kts | 17° |
| 2026-04-30 13:40 | -28.28095 | 153.46531 | 20290 ft | 367 kts | 17° |
| 2026-04-30 13:40 | -28.25667 | 153.47371 | 19901 ft | 364 kts | 17° |
| 2026-04-30 13:40 | -28.24029 | 153.47937 | 19638 ft | 363 kts | 18° |
| 2026-04-30 13:41 | -28.21653 | 153.48758 | 19255 ft | 361 kts | 18° |
| 2026-04-30 13:41 | -28.19256 | 153.49585 | 18863 ft | 360 kts | 18° |
| 2026-04-30 13:41 | -28.16853 | 153.50361 | 18443 ft | 359 kts | 12° |
| 2026-04-30 13:41 | -28.14366 | 153.50559 | 18021 ft | 357 kts | 1° |
| 2026-04-30 13:42 | -28.11887 | 153.50554 | 17611 ft | 355 kts | 0° |
| 2026-04-30 13:42 | -28.09427 | 153.50521 | 17210 ft | 352 kts | 1° |
| 2026-04-30 13:42 | -28.04562 | 153.50479 | 16439 ft | 347 kts | 1° |
| 2026-04-30 13:43 | -28.02157 | 153.50476 | 16058 ft | 345 kts | 1° |
| 2026-04-30 13:43 | -27.99765 | 153.50478 | 15678 ft | 342 kts | 2° |
| 2026-04-30 13:43 | -27.97389 | 153.50486 | 15302 ft | 340 kts | 2° |
| 2026-04-30 13:43 | -27.95032 | 153.50495 | 14931 ft | 338 kts | 2° |
| 2026-04-30 13:44 | -27.92684 | 153.50505 | 14562 ft | 336 kts | 2° |
| 2026-04-30 13:44 | -27.90347 | 153.50516 | 14192 ft | 335 kts | 2° |
| 2026-04-30 13:44 | -27.88030 | 153.50526 | 13789 ft | 333 kts | 2° |
| 2026-04-30 13:44 | -27.85716 | 153.50536 | 13386 ft | 331 kts | 3° |
| 2026-04-30 13:45 | -27.81134 | 153.50557 | 12620 ft | 327 kts | 3° |
| 2026-04-30 13:45 | -27.78869 | 153.50567 | 12284 ft | 324 kts | 3° |
| 2026-04-30 13:45 | -27.76638 | 153.50575 | 12164 ft | 318 kts | 3° |
| 2026-04-30 13:46 | -27.74436 | 153.50584 | 12025 ft | 316 kts | 3° |
| 2026-04-30 13:46 | -27.72216 | 153.50594 | 11905 ft | 322 kts | 3° |
| 2026-04-30 13:46 | -27.69963 | 153.50605 | 11778 ft | 325 kts | 3° |
| 2026-04-30 13:46 | -27.67705 | 153.50615 | 11632 ft | 324 kts | 3° |
| 2026-04-30 13:47 | -27.65455 | 153.50624 | 11500 ft | 322 kts | 3° |
| 2026-04-30 13:47 | -27.63221 | 153.50632 | 11366 ft | 321 kts | 2° |
| 2026-04-30 13:47 | -27.60994 | 153.50641 | 11235 ft | 320 kts | 3° |
| 2026-04-30 13:47 | -27.58764 | 153.50650 | 10991 ft | 322 kts | 3° |
| 2026-04-30 13:48 | -27.56519 | 153.50660 | 10709 ft | 323 kts | 3° |
| 2026-04-30 13:48 | -27.54262 | 153.50670 | 10432 ft | 324 kts | 3° |
| 2026-04-30 13:48 | -27.52017 | 153.50679 | 10143 ft | 321 kts | 3° |
| 2026-04-30 13:48 | -27.49802 | 153.50687 | 9826 ft | 317 kts | 3° |
| 2026-04-30 13:49 | -27.47608 | 153.50696 | 9516 ft | 313 kts | 3° |
| 2026-04-30 13:49 | -27.45438 | 153.50705 | 9199 ft | 311 kts | 3° |
| 2026-04-30 13:49 | -27.43281 | 153.50714 | 8911 ft | 309 kts | 3° |
| 2026-04-30 13:49 | -27.41135 | 153.50688 | 8648 ft | 306 kts | 1° |
| 2026-04-30 13:50 | -27.39091 | 153.50607 | 8653 ft | 292 kts | 1° |
| 2026-04-30 13:50 | -27.35097 | 153.50438 | 8185 ft | 284 kts | 1° |
| 2026-04-30 13:50 | -27.33131 | 153.50363 | 7932 ft | 281 kts | 1° |
| 2026-04-30 13:51 | -27.31184 | 153.50290 | 7688 ft | 279 kts | 1° |
| 2026-04-30 13:51 | -27.29246 | 153.50220 | 7447 ft | 278 kts | 1° |
| 2026-04-30 13:51 | -27.27322 | 153.50147 | 7204 ft | 276 kts | 1° |
| 2026-04-30 13:51 | -27.25406 | 153.50062 | 6966 ft | 275 kts | 1° |
| 2026-04-30 13:52 | -27.23501 | 153.49975 | 6771 ft | 273 kts | 1° |
| 2026-04-30 13:52 | -27.21603 | 153.49888 | 6552 ft | 274 kts | 1° |
| 2026-04-30 13:52 | -27.19685 | 153.49802 | 6308 ft | 277 kts | 1° |
| 2026-04-30 13:52 | -27.17758 | 153.49716 | 6057 ft | 277 kts | 1° |
| 2026-04-30 13:53 | -27.15884 | 153.49225 | 5784 ft | 282 kts | 334° |
| 2026-04-30 13:53 | -27.14394 | 153.47810 | 5544 ft | 282 kts | 307° |
| 2026-04-30 13:53 | -27.13320 | 153.45981 | 5315 ft | 280 kts | 301° |
| 2026-04-30 13:53 | -27.12310 | 153.44122 | 5076 ft | 278 kts | 301° |
| 2026-04-30 13:54 | -27.11312 | 153.42297 | 4974 ft | 269 kts | 301° |
| 2026-04-30 13:54 | -27.10341 | 153.40546 | 4948 ft | 260 kts | 302° |
| 2026-04-30 13:54 | -27.09381 | 153.38831 | 4946 ft | 259 kts | 302° |
| 2026-04-30 13:54 | -27.08423 | 153.37127 | 4942 ft | 259 kts | 302° |
| 2026-04-30 13:55 | -27.07558 | 153.35354 | 4941 ft | 260 kts | 285° |
| 2026-04-30 13:55 | -27.07470 | 153.33373 | 4925 ft | 255 kts | 252° |
| 2026-04-30 13:55 | -27.08209 | 153.31600 | 4750 ft | 251 kts | 229° |
| 2026-04-30 13:55 | -27.09295 | 153.30084 | 4566 ft | 247 kts | 224° |
| 2026-04-30 13:56 | -27.10409 | 153.28638 | 4374 ft | 243 kts | 224° |
| 2026-04-30 13:56 | -27.11500 | 153.27209 | 4202 ft | 239 kts | 224° |
| 2026-04-30 13:56 | -27.12573 | 153.25792 | 4045 ft | 238 kts | 224° |
| 2026-04-30 13:56 | -27.13804 | 153.24620 | 3857 ft | 228 kts | 200° |
| 2026-04-30 13:57 | -27.15246 | 153.23921 | 3726 ft | 226 kts | 200° |
| 2026-04-30 13:57 | -27.16657 | 153.23134 | 3576 ft | 226 kts | 202° |
| 2026-04-30 13:57 | -27.18053 | 153.22325 | 3414 ft | 226 kts | 202° |
| 2026-04-30 13:57 | -27.19454 | 153.21515 | 3256 ft | 227 kts | 202° |
| 2026-04-30 13:58 | -27.20858 | 153.20707 | 3106 ft | 228 kts | 202° |
| 2026-04-30 13:58 | -27.23662 | 153.19092 | 2680 ft | 222 kts | 201° |
| 2026-04-30 13:58 | -27.24988 | 153.18328 | 2394 ft | 207 kts | 201° |
| 2026-04-30 13:59 | -27.26230 | 153.17613 | 2119 ft | 194 kts | 201° |
| 2026-04-30 13:59 | -27.27396 | 153.16942 | 1866 ft | 182 kts | 200° |
| 2026-04-30 13:59 | -27.28491 | 153.16314 | 1647 ft | 170 kts | 201° |
| 2026-04-30 13:59 | -27.29489 | 153.15739 | 1416 ft | 153 kts | 200° |
| 2026-04-30 14:00 | -27.30377 | 153.15228 | 1241 ft | 137 kts | 201° |
| 2026-04-30 14:00 | -27.32026 | 153.14282 | 862 ft | 129 kts | 203° |
| 2026-04-30 14:00 | -27.32819 | 153.13823 | 680 ft | 127 kts | 204° |
| 2026-04-30 14:01 | -27.33601 | 153.13372 | 527 ft | 128 kts | 206° |
| 2026-04-30 14:01 | -27.34410 | 153.12912 | 340 ft | 132 kts | 206° |
| 2026-04-30 14:01 | -27.35228 | 153.12441 | 180 ft | 131 kts | 206° |
| 2026-04-30 14:01 | -27.36031 | 153.11979 | 30 ft | 123 kts | 206° |
| 2026-04-30 14:02 | -27.36650 | 153.11628 | 17 ft | 70 kts | 206° |
| 2026-04-30 14:02 | -27.36890 | 153.11493 | 20 ft | 8 kts | 207° |
| 2026-04-30 14:02 | -27.36955 | 153.11455 | 19 ft | 20 kts | 207° |
| 2026-04-30 14:02 | -27.37081 | 153.11384 | 18 ft | 20 kts | 204° |
| 2026-04-30 14:03 | -27.37214 | 153.11337 | 18 ft | 20 kts | 191° |
| 2026-04-30 14:03 | -27.37328 | 153.11330 | 18 ft | 5 kts | 179° |
| 2026-04-30 14:03 | -27.37331 | 153.11330 | 18 ft | 0 kts | 179° |
| 2026-04-30 14:04 | -27.37352 | 153.11330 | 19 ft | 8 kts | 179° |
| 2026-04-30 14:05 | -27.37445 | 153.11335 | 17 ft | 16 kts | 169° |
| 2026-04-30 14:05 | -27.37525 | 153.11407 | 17 ft | 14 kts | 107° |
| 2026-04-30 14:05 | -27.37471 | 153.11488 | 17 ft | 14 kts | 23° |
| 2026-04-30 14:05 | -27.37387 | 153.11534 | 17 ft | 13 kts | 28° |
| 2026-04-30 14:06 | -27.37331 | 153.11606 | 17 ft | 13 kts | 88° |
| 2026-04-30 14:06 | -27.37402 | 153.11783 | 17 ft | 12 kts | 117° |
| 2026-04-30 14:07 | -27.37478 | 153.11948 | 18 ft | 12 kts | 117° |
| 2026-04-30 14:07 | -27.37514 | 153.12028 | 17 ft | 11 kts | 117° |
| 2026-04-30 14:07 | -27.37549 | 153.12105 | 17 ft | 11 kts | 116° |
| 2026-04-30 14:08 | -27.37616 | 153.12254 | 17 ft | 10 kts | 117° |
| 2026-04-30 14:08 | -27.37648 | 153.12324 | 17 ft | 10 kts | 117° |
| 2026-04-30 14:08 | -27.37714 | 153.12464 | 17 ft | 10 kts | 117° |
| 2026-04-30 14:09 | -27.37752 | 153.12549 | 17 ft | 14 kts | 116° |
| 2026-04-30 14:09 | -27.37798 | 153.12648 | 18 ft | 14 kts | 117° |
| 2026-04-30 14:09 | -27.37901 | 153.12806 | 17 ft | 13 kts | 177° |
| 2026-04-30 14:10 | -27.37982 | 153.12769 | 17 ft | 12 kts | 207° |
| 2026-04-30 14:10 | -27.38058 | 153.12725 | 18 ft | 12 kts | 207° |
| 2026-04-30 14:10 | -27.38133 | 153.12683 | 18 ft | 12 kts | 207° |
| 2026-04-30 14:10 | -27.38205 | 153.12641 | 17 ft | 12 kts | 207° |
| 2026-04-30 14:11 | -27.38276 | 153.12601 | 17 ft | 11 kts | 207° |
| 2026-04-30 14:11 | -27.38345 | 153.12562 | 18 ft | 11 kts | 207° |
| 2026-04-30 14:11 | -27.38412 | 153.12524 | 17 ft | 11 kts | 207° |
| 2026-04-30 14:11 | -27.38477 | 153.12487 | 17 ft | 10 kts | 206° |
| 2026-04-30 14:12 | -27.38548 | 153.12447 | 18 ft | 13 kts | 206° |
| 2026-04-30 14:12 | -27.38636 | 153.12398 | 18 ft | 15 kts | 206° |
| 2026-04-30 14:12 | -27.38736 | 153.12340 | 18 ft | 17 kts | 207° |
| 2026-04-30 14:12 | -27.38803 | 153.12300 | 17 ft | 16 kts | 207° |
| 2026-04-30 14:13 | -27.38933 | 153.12224 | 17 ft | 15 kts | 207° |
| 2026-04-30 14:13 | -27.39026 | 153.12171 | 17 ft | 15 kts | 206° |
| 2026-04-30 14:13 | -27.39116 | 153.12121 | 17 ft | 14 kts | 206° |
| 2026-04-30 14:13 | -27.39202 | 153.12073 | 17 ft | 13 kts | 207° |
| 2026-04-30 14:14 | -27.39283 | 153.12025 | 18 ft | 13 kts | 207° |
| 2026-04-30 14:14 | -27.39362 | 153.11980 | 17 ft | 13 kts | 207° |
| 2026-04-30 14:14 | -27.39440 | 153.11936 | 18 ft | 12 kts | 206° |
| 2026-04-30 14:14 | -27.39515 | 153.11894 | 18 ft | 12 kts | 206° |
| 2026-04-30 14:15 | -27.39589 | 153.11853 | 17 ft | 12 kts | 206° |
| 2026-04-30 14:15 | -27.39661 | 153.11813 | 17 ft | 11 kts | 206° |
| 2026-04-30 14:15 | -27.39731 | 153.11773 | 18 ft | 11 kts | 207° |
| 2026-04-30 14:15 | -27.39802 | 153.11732 | 17 ft | 13 kts | 207° |
| 2026-04-30 14:16 | -27.39896 | 153.11677 | 17 ft | 17 kts | 208° |
| 2026-04-30 14:16 | -27.40008 | 153.11613 | 17 ft | 20 kts | 207° |
| 2026-04-30 14:16 | -27.40133 | 153.11541 | 18 ft | 20 kts | 207° |
| 2026-04-30 14:16 | -27.40256 | 153.11470 | 17 ft | 19 kts | 207° |
| 2026-04-30 14:17 | -27.40374 | 153.11402 | 17 ft | 19 kts | 207° |
| 2026-04-30 14:17 | -27.40489 | 153.11335 | 18 ft | 18 kts | 207° |
| 2026-04-30 14:17 | -27.40600 | 153.11273 | 17 ft | 18 kts | 206° |
| 2026-04-30 14:17 | -27.40707 | 153.11212 | 17 ft | 17 kts | 207° |
| 2026-04-30 14:18 | -27.40810 | 153.11153 | 17 ft | 16 kts | 207° |
| 2026-04-30 14:18 | -27.40895 | 153.11072 | 17 ft | 16 kts | 228° |
| 2026-04-30 14:18 | -27.40912 | 153.10855 | 17 ft | 14 kts | 293° |
| 2026-04-30 14:19 | -27.40895 | 153.10645 | 17 ft | 13 kts | 253° |
| 2026-04-30 14:19 | -27.40937 | 153.10555 | 17 ft | 13 kts | 232° |
| 2026-04-30 14:19 | -27.40996 | 153.10482 | 18 ft | 12 kts | 226° |
| 2026-04-30 14:20 | -27.41055 | 153.10412 | 17 ft | 12 kts | 227° |
| 2026-04-30 14:20 | -27.41112 | 153.10343 | 17 ft | 12 kts | 227° |
| 2026-04-30 14:20 | -27.41223 | 153.10213 | 18 ft | 11 kts | 224° |
| 2026-04-30 14:21 | -27.41277 | 153.10152 | 19 ft | 11 kts | 224° |
| 2026-04-30 14:21 | -27.41330 | 153.10093 | 17 ft | 11 kts | 228° |
| 2026-04-30 14:21 | -27.41440 | 153.09960 | 17 ft | 13 kts | 226° |
| 2026-04-30 14:22 | -27.41501 | 153.09891 | 17 ft | 12 kts | 219° |
| 2026-04-30 14:22 | -27.41640 | 153.09947 | 17 ft | 12 kts | 136° |
| 2026-04-30 14:22 | -27.41711 | 153.09978 | 17 ft | 11 kts | 191° |
| 2026-04-30 14:23 | -27.41804 | 153.09920 | 17 ft | 6 kts | 177° |
| 2026-04-30 14:23 | -27.41846 | 153.09947 | 17 ft | 1 kts | 135° |
| 2026-04-30 14:24 | -27.41853 | 153.09955 | 19 ft | 0 kts | 135° |